Weather at Nayrab Military Heliport

Public forecast

Using degrees Celsius for public forecast. Weather courtesy of forecast.io.

Closest aviation weather report (METAR) to Nayrab Military Heliport

Closest report is Aleppo International Airport, 0.2 nm (0.4 km) ENE.

2024/02/23 07:00 (retrieved 51 minutes ago)

OSAP 230700Z 32002KT 5000 BR 11/10 Q1023

Closest aviation forecast (TAF) to Nayrab Military Heliport

Forecast is more than 12 hours old.

Closest forecast is Aleppo International Airport, 0.2 nm (0.4 km) ENE.

2024/02/22 18:33 (retrieved 13 hours ago)

TAF TAF OSAP 221800Z 2218/2318 VRB03KT 5000 BR SCT030 TEMPO 2303/2306 2000 BR NSC